Tundra — 5BVN2 — position and weather

sailwx.info

Track history (hours):
 
Tides and Currents Weather Stations Pressure Air Temp Water Temp Dewpoint Dewpoint Depression Visibility Wind Speed Wind Dir Waves Ship Positions

Tundra

Last reported at 2017-Oct-18 20:10 UTC. Time now 2017-Oct-22 12:12 UTC.
Position S 24°24' W 044°56'.

Length 185 m; draft 8 m.

Type: Cargo ship. MMSI: 209015000.

Date/timePositionNaut miles runAvg speedWind from/ knotsBaromVisibWave heightAir tempDewpointWater temp
2017-Oct-18 20:10S 24°24' W 044°56'412.3
2017-Oct-18 19:50S 24°24' W 045°01'712.3
2017-Oct-18 19:19S 24°24' W 045°08'612.3
2017-Oct-18 18:51S 24°24' W 045°14'412.3
2017-Oct-18 18:29S 24°24' W 045°19'612.3
2017-Oct-18 18:00S 24°24' W 045°26'612.3
2017-Oct-18 17:31S 24°24' W 045°32'612.3
2017-Oct-18 17:00S 24°24' W 045°39'612.3
2017-Oct-18 16:30S 24°24' W 045°46'612.4
2017-Oct-18 16:01S 24°24' W 045°53'612.6
2017-Oct-18 15:30S 24°24' W 045°60'612.4
2017-Oct-18 15:00S 24°23' W 046°06'1211.5
2017-Oct-18 14:00S 24°18' W 046°18'613.0
2017-Oct-18 13:30S 24°13' W 046°22'612.9
2017-Oct-18 13:00S 24°07' W 046°23'612.1
2017-Oct-18 12:30S 24°01' W 046°20'4 6.9
2017-Oct-18 11:59S 23°59' W 046°17'2 0.1
2017-Oct-17 07:04S 23°57' W 046°19'3 5.3
2017-Oct-17 06:33S 23°59' W 046°17'0 8.8
2017-Oct-17 06:30S 23°60' W 046°18'4 7.9
2017-Oct-17 06:00S 24°02' W 046°21'3 6.2
2017-Oct-17 05:30S 24°05' W 046°22'2 2.7
2017-Oct-17 04:55S 24°07' W 046°21'0 0.0
2017-Oct-17 04:28S 24°07' W 046°21'0 0.0
2017-Oct-17 03:55S 24°07' W 046°21'0 0.0
2017-Oct-17 03:13S 24°07' W 046°21'0 0.0
2017-Oct-17 03:00S 24°07' W 046°21'0 0.0
2017-Oct-17 02:30S 24°07' W 046°21'0 0.0
2017-Oct-17 02:00S 24°07' W 046°21'0 0.0
2017-Oct-17 01:30S 24°07' W 046°21'0 0.0
2017-Oct-17 01:00S 24°07' W 046°21'0 0.0
2017-Oct-17 00:30S 24°07' W 046°21'0 0.0
2017-Oct-17 00:00S 24°07' W 046°21'0 0.0
2017-Oct-16 23:30S 24°07' W 046°21'0 0.0
2017-Oct-16 23:00S 24°07' W 046°21'0 0.0
2017-Oct-16 22:30S 24°07' W 046°21'0 0.0
2017-Oct-16 22:00S 24°07' W 046°21'0 0.0
2017-Oct-16 21:27S 24°07' W 046°21'0 0.1
2017-Oct-16 21:00S 24°07' W 046°21'0 0.0
2017-Oct-16 20:30S 24°07' W 046°21'0 0.0
2017-Oct-16 20:00S 24°07' W 046°21'0 0.0
2017-Oct-16 19:30S 24°07' W 046°21'0 0.0
2017-Oct-16 18:48S 24°07' W 046°21'0 0.0
2017-Oct-16 18:30S 24°07' W 046°21'0 0.0
2017-Oct-16 17:57S 24°07' W 046°21'0 0.0
2017-Oct-16 17:30S 24°07' W 046°21'0 0.0
2017-Oct-16 17:00S 24°07' W 046°21'0 0.0
2017-Oct-16 16:30S 24°07' W 046°21'0 0.0
2017-Oct-16 16:00S 24°07' W 046°21'0 0.0
2017-Oct-16 15:30S 24°07' W 046°21'0 0.0
2017-Oct-16 15:00S 24°07' W 046°21'0 0.0
2017-Oct-16 14:00S 24°07' W 046°21'0 0.0
2017-Oct-16 13:30S 24°07' W 046°21'0 0.0
2017-Oct-16 13:00S 24°07' W 046°21'0 0.0
2017-Oct-16 12:24S 24°07' W 046°21'0 0.0
2017-Oct-16 12:00S 24°07' W 046°21'0 0.0
2017-Oct-16 11:30S 24°06' W 046°21'0 0.0
2017-Oct-16 10:42S 24°06' W 046°21'0 0.1
2017-Oct-16 10:30S 24°06' W 046°21'0 0.0
2017-Oct-16 09:57S 24°06' W 046°21'0 0.0
2017-Oct-16 09:30S 24°06' W 046°21'0 0.1
2017-Oct-16 09:00S 24°06' W 046°21'0 0.0
2017-Oct-16 08:30S 24°06' W 046°21'0 0.0
2017-Oct-16 08:00S 24°07' W 046°21'0 0.0
2017-Oct-16 07:30S 24°06' W 046°21'0 0.0
2017-Oct-16 07:00S 24°07' W 046°21'0 0.1
2017-Oct-16 06:30S 24°06' W 046°21'0 0.1
2017-Oct-16 05:57S 24°07' W 046°21'0 0.1
2017-Oct-16 05:30S 24°06' W 046°21'0 0.0
2017-Oct-16 05:00S 24°06' W 046°21'0 0.0
2017-Oct-16 04:30S 24°06' W 046°21'0 0.0
2017-Oct-16 04:00S 24°06' W 046°21'0 0.0
2017-Oct-16 03:30S 24°06' W 046°21'0 0.0
2017-Oct-16 02:57S 24°06' W 046°21'0 0.1
2017-Oct-16 02:30S 24°06' W 046°21'0 0.0
2017-Oct-16 02:00S 24°06' W 046°21'0 0.1
2017-Oct-16 01:30S 24°06' W 046°21'0 0.0
2017-Oct-16 01:00S 24°06' W 046°21'0 0.1
2017-Oct-16 00:24S 24°06' W 046°21'0 0.0
2017-Oct-16 00:00S 24°06' W 046°21'0 0.0
2017-Oct-15 23:30S 24°06' W 046°21'0 0.0
2017-Oct-15 23:00S 24°06' W 046°21'0 0.0
2017-Oct-15 22:30S 24°06' W 046°21'0 0.0
2017-Oct-15 22:00S 24°06' W 046°21'0 0.0
2017-Oct-15 21:30S 24°06' W 046°21'0 0.0
2017-Oct-15 21:00S 24°06' W 046°21'0 0.0
2017-Oct-15 20:30S 24°06' W 046°21'0 0.0
2017-Oct-15 19:59S 24°06' W 046°21'0 0.0
2017-Oct-15 19:24S 24°06' W 046°21'0 0.1
2017-Oct-15 19:00S 24°06' W 046°21'0 0.0
2017-Oct-15 18:30S 24°06' W 046°21'0 0.0
2017-Oct-15 17:59S 24°06' W 046°21'0 0.0
2017-Oct-15 17:30S 24°06' W 046°21'0 0.2
2017-Oct-15 17:01S 24°06' W 046°21'1 2.3
2017-Oct-15 16:31S 24°07' W 046°22'3 6.1
2017-Oct-15 16:01S 24°10' W 046°23'510.2
2017-Oct-15 15:31S 24°15' W 046°26'612.9
2017-Oct-15 15:01S 24°20' W 046°29'1312.6
2017-Oct-15 14:00S 24°32' W 046°36'612.6
2017-Oct-15 13:30S 24°36' W 046°41'612.4
2017-Oct-15 13:00S 24°40' W 046°46'2 0.2
2017-Oct-15 03:08S 24°41' W 046°48'0 0.1
2017-Oct-15 00:59S 24°41' W 046°48'2 4.6
2017-Oct-15 00:31S 24°42' W 046°50'  
2017-Oct-10 06:35S 25°46' W 048°14'0 0.0
2017-Oct-10 06:23S 25°46' W 048°14'0 0.0
2017-Oct-10 05:56S 25°46' W 048°14'  
Track history (hours):
 
Tides and Currents Weather Stations Pressure Air Temp Water Temp Dewpoint Dewpoint Depression Visibility Wind Speed Wind Dir Waves Ship Positions

Tundra

Last reported at 2017-Oct-18 20:10 UTC. Time now 2017-Oct-22 12:12 UTC.
Position S 24°24' W 044°56'.

Length 185 m; draft 8 m.

Type: Cargo ship. MMSI: 209015000.

Date/timePositionNaut miles runAvg speedWind from/ knotsBaromVisibWave heightAir tempDewpointWater temp
2017-Oct-18 20:10S 24°24' W 044°56'412.3
2017-Oct-18 19:50S 24°24' W 045°01'712.3
2017-Oct-18 19:19S 24°24' W 045°08'612.3
2017-Oct-18 18:51S 24°24' W 045°14'412.3
2017-Oct-18 18:29S 24°24' W 045°19'612.3
2017-Oct-18 18:00S 24°24' W 045°26'612.3
2017-Oct-18 17:31S 24°24' W 045°32'612.3
2017-Oct-18 17:00S 24°24' W 045°39'612.3
2017-Oct-18 16:30S 24°24' W 045°46'612.4
2017-Oct-18 16:01S 24°24' W 045°53'612.6
2017-Oct-18 15:30S 24°24' W 045°60'612.4
2017-Oct-18 15:00S 24°23' W 046°06'1211.5
2017-Oct-18 14:00S 24°18' W 046°18'613.0
2017-Oct-18 13:30S 24°13' W 046°22'612.9
2017-Oct-18 13:00S 24°07' W 046°23'612.1
2017-Oct-18 12:30S 24°01' W 046°20'4 6.9
2017-Oct-18 11:59S 23°59' W 046°17'2 0.1
2017-Oct-17 07:04S 23°57' W 046°19'3 5.3
2017-Oct-17 06:33S 23°59' W 046°17'0 8.8
2017-Oct-17 06:30S 23°60' W 046°18'4 7.9
2017-Oct-17 06:00S 24°02' W 046°21'3 6.2
2017-Oct-17 05:30S 24°05' W 046°22'2 2.7
2017-Oct-17 04:55S 24°07' W 046°21'0 0.0
2017-Oct-17 04:28S 24°07' W 046°21'0 0.0
2017-Oct-17 03:55S 24°07' W 046°21'0 0.0
2017-Oct-17 03:13S 24°07' W 046°21'0 0.0
2017-Oct-17 03:00S 24°07' W 046°21'0 0.0
2017-Oct-17 02:30S 24°07' W 046°21'0 0.0
2017-Oct-17 02:00S 24°07' W 046°21'0 0.0
2017-Oct-17 01:30S 24°07' W 046°21'0 0.0
2017-Oct-17 01:00S 24°07' W 046°21'0 0.0
2017-Oct-17 00:30S 24°07' W 046°21'0 0.0
2017-Oct-17 00:00S 24°07' W 046°21'0 0.0
2017-Oct-16 23:30S 24°07' W 046°21'0 0.0
2017-Oct-16 23:00S 24°07' W 046°21'0 0.0
2017-Oct-16 22:30S 24°07' W 046°21'0 0.0
2017-Oct-16 22:00S 24°07' W 046°21'0 0.0
2017-Oct-16 21:27S 24°07' W 046°21'0 0.1
2017-Oct-16 21:00S 24°07' W 046°21'0 0.0
2017-Oct-16 20:30S 24°07' W 046°21'0 0.0
2017-Oct-16 20:00S 24°07' W 046°21'0 0.0
2017-Oct-16 19:30S 24°07' W 046°21'0 0.0
2017-Oct-16 18:48S 24°07' W 046°21'0 0.0
2017-Oct-16 18:30S 24°07' W 046°21'0 0.0
2017-Oct-16 17:57S 24°07' W 046°21'0 0.0
2017-Oct-16 17:30S 24°07' W 046°21'0 0.0
2017-Oct-16 17:00S 24°07' W 046°21'0 0.0
2017-Oct-16 16:30S 24°07' W 046°21'0 0.0
2017-Oct-16 16:00S 24°07' W 046°21'0 0.0
2017-Oct-16 15:30S 24°07' W 046°21'0 0.0
2017-Oct-16 15:00S 24°07' W 046°21'0 0.0
2017-Oct-16 14:00S 24°07' W 046°21'0 0.0
2017-Oct-16 13:30S 24°07' W 046°21'0 0.0
2017-Oct-16 13:00S 24°07' W 046°21'0 0.0
2017-Oct-16 12:24S 24°07' W 046°21'0 0.0
2017-Oct-16 12:00S 24°07' W 046°21'0 0.0
2017-Oct-16 11:30S 24°06' W 046°21'0 0.0
2017-Oct-16 10:42S 24°06' W 046°21'0 0.1
2017-Oct-16 10:30S 24°06' W 046°21'0 0.0
2017-Oct-16 09:57S 24°06' W 046°21'0 0.0
2017-Oct-16 09:30S 24°06' W 046°21'0 0.1
2017-Oct-16 09:00S 24°06' W 046°21'0 0.0
2017-Oct-16 08:30S 24°06' W 046°21'0 0.0
2017-Oct-16 08:00S 24°07' W 046°21'0 0.0
2017-Oct-16 07:30S 24°06' W 046°21'0 0.0
2017-Oct-16 07:00S 24°07' W 046°21'0 0.1
2017-Oct-16 06:30S 24°06' W 046°21'0 0.1
2017-Oct-16 05:57S 24°07' W 046°21'0 0.1
2017-Oct-16 05:30S 24°06' W 046°21'0 0.0
2017-Oct-16 05:00S 24°06' W 046°21'0 0.0
2017-Oct-16 04:30S 24°06' W 046°21'0 0.0
2017-Oct-16 04:00S 24°06' W 046°21'0 0.0
2017-Oct-16 03:30S 24°06' W 046°21'0 0.0
2017-Oct-16 02:57S 24°06' W 046°21'0 0.1
2017-Oct-16 02:30S 24°06' W 046°21'0 0.0
2017-Oct-16 02:00S 24°06' W 046°21'0 0.1
2017-Oct-16 01:30S 24°06' W 046°21'0 0.0
2017-Oct-16 01:00S 24°06' W 046°21'0 0.1
2017-Oct-16 00:24S 24°06' W 046°21'0 0.0
2017-Oct-16 00:00S 24°06' W 046°21'0 0.0
2017-Oct-15 23:30S 24°06' W 046°21'0 0.0
2017-Oct-15 23:00S 24°06' W 046°21'0 0.0
2017-Oct-15 22:30S 24°06' W 046°21'0 0.0
2017-Oct-15 22:00S 24°06' W 046°21'0 0.0
2017-Oct-15 21:30S 24°06' W 046°21'0 0.0
2017-Oct-15 21:00S 24°06' W 046°21'0 0.0
2017-Oct-15 20:30S 24°06' W 046°21'0 0.0
2017-Oct-15 19:59S 24°06' W 046°21'0 0.0
2017-Oct-15 19:24S 24°06' W 046°21'0 0.1
2017-Oct-15 19:00S 24°06' W 046°21'0 0.0
2017-Oct-15 18:30S 24°06' W 046°21'0 0.0
2017-Oct-15 17:59S 24°06' W 046°21'0 0.0
2017-Oct-15 17:30S 24°06' W 046°21'0 0.2
2017-Oct-15 17:01S 24°06' W 046°21'1 2.3
2017-Oct-15 16:31S 24°07' W 046°22'3 6.1
2017-Oct-15 16:01S 24°10' W 046°23'510.2
2017-Oct-15 15:31S 24°15' W 046°26'612.9
2017-Oct-15 15:01S 24°20' W 046°29'1312.6
2017-Oct-15 14:00S 24°32' W 046°36'612.6
2017-Oct-15 13:30S 24°36' W 046°41'612.4
2017-Oct-15 13:00S 24°40' W 046°46'2 0.2
2017-Oct-15 03:08S 24°41' W 046°48'0 0.1
2017-Oct-15 00:59S 24°41' W 046°48'2 4.6
2017-Oct-15 00:31S 24°42' W 046°50'  
2017-Oct-10 06:35S 25°46' W 048°14'0 0.0
2017-Oct-10 06:23S 25°46' W 048°14'0 0.0
2017-Oct-10 05:56S 25°46' W 048°14'  

Dump ship's entire track history